Time;durP1;ratioP1;P1;durP2;ratioP2;P2;SDS_P1;SDS_P2;PMS_P1;PMS_P2;Temp;Humidity;BMP_temperature;BMP_pressure;BME280_temperature;BME280_humidity;BME280_pressure;Samples;Min_cycle;Max_cycle;Signal;HPM_P1;HPM_P2
2022/03/14 00:02:14;;;;;;;1.60;1.20;;;18.90;41.70;;;;;;5117488;28;20426;-38
2022/03/14 00:04:40;;;;;;;1.40;1.30;;;18.80;41.70;;;;;;5118365;28;20027;-38
2022/03/14 00:07:07;;;;;;;2.88;1.40;;;18.80;41.70;;;;;;5118780;28;20038;-39
2022/03/14 00:09:33;;;;;;;1.40;1.30;;;18.80;42.30;;;;;;5117660;28;20043;-38
2022/03/14 00:12:00;;;;;;;1.30;1.20;;;18.80;41.80;;;;;;5117991;28;20041;-42
2022/03/14 00:14:27;;;;;;;1.88;1.50;;;18.80;41.80;;;;;;5123224;28;20076;-40
2022/03/14 00:16:56;;;;;;;1.40;1.15;;;18.80;41.90;;;;;;5124243;28;20020;-43
2022/03/14 00:19:22;;;;;;;1.38;1.27;;;18.80;41.80;;;;;;5106279;28;20027;-43
2022/03/14 00:21:49;;;;;;;1.60;1.50;;;18.80;41.80;;;;;;5123812;28;20402;-42
2022/03/14 00:24:15;;;;;;;1.70;1.38;;;18.80;41.90;;;;;;5123649;28;20035;-40
2022/03/14 00:26:41;;;;;;;1.25;1.15;;;18.70;41.80;;;;;;5123396;28;20028;-40
2022/03/14 00:29:08;;;;;;;1.20;1.10;;;18.80;41.90;;;;;;5122161;28;20019;-39
2022/03/14 00:31:34;;;;;;;1.42;1.30;;;18.70;41.90;;;;;;5120399;28;20070;-39
2022/03/14 00:34:01;;;;;;;2.28;1.48;;;18.70;41.90;;;;;;5120103;28;20485;-39
2022/03/14 00:36:30;;;;;;;1.70;1.23;;;18.80;42.00;;;;;;5119789;28;20020;-39
2022/03/14 00:38:56;;;;;;;1.48;1.30;;;18.70;42.00;;;;;;5119665;28;20425;-40
2022/03/14 00:41:23;;;;;;;1.15;1.02;;;18.70;41.90;;;;;;5120253;28;20123;-41
2022/03/14 00:43:49;;;;;;;1.17;1.08;;;18.80;42.00;;;;;;5118777;28;20035;-41
2022/03/14 00:46:17;;;;;;;1.40;1.30;;;18.80;42.00;;;;;;5117711;28;20032;-38
2022/03/14 00:48:44;;;;;;;1.98;1.40;;;18.80;42.00;;;;;;5118122;28;20020;-45
2022/03/14 00:51:10;;;;;;;1.30;1.20;;;18.70;42.00;;;;;;5118351;28;20087;-43
2022/03/14 00:53:37;;;;;;;1.40;1.30;;;18.70;42.10;;;;;;5117660;28;20042;-39
2022/03/14 00:56:03;;;;;;;1.60;1.10;;;18.70;42.10;;;;;;5117192;28;20085;-38
2022/03/14 00:58:29;;;;;;;1.38;1.27;;;18.70;42.10;;;;;;5099467;28;20023;-38
2022/03/14 01:00:55;;;;;;;1.40;1.30;;;18.70;42.10;;;;;;5118017;28;20544;-41
2022/03/14 01:03:21;;;;;;;1.65;1.40;;;18.70;42.00;;;;;;5118106;28;20026;-38
2022/03/14 01:05:47;;;;;;;1.35;1.25;;;18.70;42.10;;;;;;5100389;28;20032;-39
2022/03/14 01:08:12;;;;;;;1.27;1.17;;;18.70;42.10;;;;;;5118467;28;20181;-38
2022/03/14 01:10:38;;;;;;;1.20;1.10;;;18.70;42.20;;;;;;5117768;28;20024;-38
2022/03/14 01:13:04;;;;;;;1.90;1.38;;;18.70;42.20;;;;;;5099393;28;20015;-39
2022/03/14 01:15:32;;;;;;;1.30;1.20;;;18.70;42.10;;;;;;5117857;28;20366;-40
2022/03/14 01:18:00;;;;;;;1.30;1.20;;;18.70;42.20;;;;;;5118069;28;20015;-39
2022/03/14 01:20:26;;;;;;;1.58;1.40;;;18.70;42.30;;;;;;5099137;28;20016;-39
2022/03/14 01:22:56;;;;;;;2.03;1.50;;;18.70;42.20;;;;;;5116145;28;20477;-38
2022/03/14 01:25:23;;;;;;;1.48;1.35;;;18.70;42.30;;;;;;5117790;28;20055;-40
2022/03/14 01:27:50;;;;;;;1.25;1.10;;;18.70;42.30;;;;;;5117741;28;20016;-41
2022/03/14 01:30:17;;;;;;;1.15;1.05;;;18.70;42.30;;;;;;5120821;28;20090;-39
2022/03/14 01:32:43;;;;;;;1.42;1.33;;;18.70;42.30;;;;;;5121030;28;20012;-38
2022/03/14 01:35:10;;;;;;;1.75;1.35;;;18.70;42.30;;;;;;5122020;28;20150;-40
2022/03/14 01:37:36;;;;;;;1.40;1.30;;;18.70;42.40;;;;;;5121909;28;20011;-40
2022/03/14 01:40:03;;;;;;;1.40;1.23;;;18.70;42.40;;;;;;5121988;28;20060;-41
2022/03/14 01:42:30;;;;;;;1.63;1.38;;;18.60;42.40;;;;;;5102904;28;20063;-39
2022/03/14 01:44:57;;;;;;;1.30;1.17;;;18.60;42.40;;;;;;5120504;28;20020;-38
2022/03/14 01:47:23;;;;;;;1.33;1.23;;;18.70;42.40;;;;;;5102017;28;20033;-43
2022/03/14 01:49:49;;;;;;;1.33;1.23;;;18.60;42.40;;;;;;5120817;28;20102;-39
2022/03/14 01:52:15;;;;;;;1.58;1.48;;;18.60;42.40;;;;;;5121236;28;20481;-40
2022/03/14 01:54:41;;;;;;;1.35;1.17;;;18.60;42.50;;;;;;5120475;28;20377;-39
2022/03/14 01:57:06;;;;;;;1.23;1.08;;;18.60;42.40;;;;;;5102247;28;20091;-38
2022/03/14 01:59:33;;;;;;;1.30;1.20;;;18.60;42.60;;;;;;5097775;28;20084;-38
2022/03/14 02:02:00;;;;;;;1.30;1.20;;;18.60;42.50;;;;;;5095982;28;20035;-38
2022/03/14 02:04:26;;;;;;;1.20;1.10;;;18.60;42.50;;;;;;5113565;28;20016;-37
2022/03/14 02:06:53;;;;;;;1.10;1.00;;;18.60;42.60;;;;;;5113620;28;20088;-38
2022/03/14 02:09:19;;;;;;;1.65;1.30;;;18.60;42.60;;;;;;5113646;28;20007;-38
2022/03/14 02:11:52;;;;;;;1.65;1.33;;;18.60;42.60;;;;;;5095563;28;20351;-42
2022/03/14 02:14:20;;;;;;;1.95;1.20;;;18.60;42.60;;;;;;5096710;28;20427;-40
2022/03/14 02:16:45;;;;;;;1.52;1.30;;;18.60;42.70;;;;;;5115234;28;20102;-41
2022/03/14 02:19:11;;;;;;;1.80;1.23;;;18.60;42.60;;;;;;5097148;28;20058;-38
2022/03/14 02:21:38;;;;;;;1.20;1.10;;;18.60;42.70;;;;;;5115629;28;20378;-41
2022/03/14 02:24:04;;;;;;;1.33;1.17;;;18.60;42.80;;;;;;5115607;28;20072;-37
2022/03/14 02:26:30;;;;;;;1.52;1.20;;;18.60;42.80;;;;;;5115758;28;20058;-40
2022/03/14 02:28:56;;;;;;;1.55;1.30;;;18.50;42.70;;;;;;5117409;28;20043;-38
2022/03/14 02:31:23;;;;;;;1.95;1.15;;;18.60;42.80;;;;;;5119184;28;20461;-39
2022/03/14 02:33:51;;;;;;;1.45;1.17;;;18.60;42.80;;;;;;5119284;28;20555;-38
2022/03/14 02:36:17;;;;;;;1.80;1.20;;;18.60;42.80;;;;;;5119463;28;20020;-40
2022/03/14 02:38:43;;;;;;;1.40;1.30;;;18.60;42.80;;;;;;5118681;28;20027;-38
2022/03/14 02:41:10;;;;;;;1.10;1.00;;;18.60;42.90;;;;;;5118498;28;20039;-39
2022/03/14 02:43:36;;;;;;;1.50;1.20;;;18.50;42.90;;;;;;5119189;28;20077;-38
2022/03/14 02:46:03;;;;;;;1.40;1.27;;;18.60;43.00;;;;;;5117394;28;20099;-37
2022/03/14 02:48:30;;;;;;;1.27;1.17;;;18.60;43.00;;;;;;5116141;28;20076;-38
2022/03/14 02:50:56;;;;;;;1.35;1.10;;;18.50;42.90;;;;;;5115418;28;20023;-37
2022/03/14 02:53:23;;;;;;;1.35;1.25;;;18.50;42.90;;;;;;5116029;28;20012;-39
2022/03/14 02:55:49;;;;;;;1.45;1.35;;;18.50;43.00;;;;;;5115923;28;20028;-38
2022/03/14 02:58:15;;;;;;;1.80;1.38;;;18.50;43.00;;;;;;5116079;28;20362;-40
2022/03/14 03:00:41;;;;;;;1.52;1.25;;;18.50;43.00;;;;;;5117490;28;20111;-39
2022/03/14 03:03:06;;;;;;;1.42;1.23;;;18.50;43.00;;;;;;5120521;28;20053;-40
2022/03/14 03:05:34;;;;;;;1.20;1.10;;;18.50;43.00;;;;;;5121025;28;20035;-40
2022/03/14 03:08:03;;;;;;;1.40;1.30;;;18.50;43.00;;;;;;5120835;28;20026;-39
2022/03/14 03:10:29;;;;;;;1.58;1.00;;;18.50;43.10;;;;;;5121302;28;20015;-42
2022/03/14 03:12:54;;;;;;;2.60;1.17;;;18.50;43.10;;;;;;5120169;28;20016;-37
2022/03/14 03:15:22;;;;;;;1.48;1.38;;;18.50;43.10;;;;;;5113862;28;20012;-38
2022/03/14 03:17:47;;;;;;;1.58;1.10;;;18.50;43.10;;;;;;5114046;28;20016;-38
2022/03/14 03:20:14;;;;;;;1.30;1.20;;;18.50;43.10;;;;;;5119352;28;20030;-40
2022/03/14 03:22:40;;;;;;;1.80;1.42;;;18.50;43.10;;;;;;5119234;28;20022;-41
2022/03/14 03:25:07;;;;;;;1.30;1.17;;;18.50;43.20;;;;;;5119098;28;20541;-39
2022/03/14 03:27:33;;;;;;;1.65;1.23;;;18.50;43.20;;;;;;5100384;28;20092;-38
2022/03/14 03:30:00;;;;;;;1.48;1.20;;;18.50;43.30;;;;;;5119082;28;20015;-41
2022/03/14 03:32:26;;;;;;;1.45;1.25;;;18.50;43.20;;;;;;5118586;28;20031;-40
2022/03/14 03:34:52;;;;;;;1.60;1.50;;;18.50;43.20;;;;;;5118694;28;20023;-39
2022/03/14 03:37:18;;;;;;;1.38;1.20;;;18.50;43.20;;;;;;5118177;28;20494;-38
2022/03/14 03:39:44;;;;;;;1.38;1.15;;;18.50;43.20;;;;;;5118188;28;20069;-42
2022/03/14 03:42:10;;;;;;;2.05;1.30;;;18.50;43.30;;;;;;5118696;28;20069;-38
2022/03/14 03:44:36;;;;;;;1.33;1.15;;;18.50;43.30;;;;;;5099102;28;20024;-38
2022/03/14 03:47:02;;;;;;;1.60;1.30;;;18.50;43.30;;;;;;5117033;28;20019;-37
2022/03/14 03:49:28;;;;;;;1.90;1.30;;;18.50;43.30;;;;;;5099485;28;20018;-37
2022/03/14 03:51:54;;;;;;;1.52;1.30;;;18.40;43.30;;;;;;5117013;28;20083;-38
2022/03/14 03:54:23;;;;;;;1.20;1.10;;;18.40;43.30;;;;;;5117395;28;20016;-38
2022/03/14 03:56:49;;;;;;;2.50;1.20;;;18.40;43.30;;;;;;5098749;28;20481;-38
2022/03/14 03:59:16;;;;;;;1.45;1.23;;;18.50;43.40;;;;;;5117304;28;20016;-38
2022/03/14 04:01:43;;;;;;;1.50;1.20;;;18.40;43.40;;;;;;5117025;28;20074;-39
2022/03/14 04:04:09;;;;;;;1.92;1.20;;;18.40;43.40;;;;;;5117610;28;20072;-38
2022/03/14 04:06:36;;;;;;;1.30;1.10;;;18.40;43.40;;;;;;5116530;28;20078;-39
2022/03/14 04:09:03;;;;;;;1.30;1.20;;;18.40;43.40;;;;;;5116898;28;20027;-39
2022/03/14 04:11:29;;;;;;;1.73;1.30;;;18.40;43.40;;;;;;5099139;28;20026;-38
2022/03/14 04:13:58;;;;;;;1.83;1.13;;;18.40;43.40;;;;;;5116887;28;20102;-38
2022/03/14 04:16:26;;;;;;;1.40;1.20;;;18.50;43.40;;;;;;5116778;28;20028;-38
2022/03/14 04:18:53;;;;;;;1.52;1.15;;;18.50;43.30;;;;;;5116714;28;20011;-38
2022/03/14 04:21:19;;;;;;;1.30;1.15;;;18.50;43.20;;;;;;5116668;28;20454;-38
2022/03/14 04:23:48;;;;;;;2.13;1.38;;;18.60;42.80;;;;;;5116854;28;20019;-39
2022/03/14 04:26:14;;;;;;;1.67;1.30;;;18.80;42.40;;;;;;5115693;28;20474;-39
2022/03/14 04:28:41;;;;;;;1.75;1.20;;;18.90;42.10;;;;;;5097408;28;20018;-41
2022/03/14 04:31:07;;;;;;;1.63;1.45;;;19.00;41.90;;;;;;5116140;28;20012;-42
2022/03/14 04:33:34;;;;;;;1.80;1.30;;;19.10;41.70;;;;;;5097874;28;20485;-41
2022/03/14 04:36:00;;;;;;;1.60;1.02;;;19.20;41.40;;;;;;5116244;28;20015;-39
2022/03/14 04:38:26;;;;;;;1.20;1.10;;;19.40;41.20;;;;;;5116840;28;20458;-40
2022/03/14 04:40:52;;;;;;;1.48;1.10;;;19.50;41.00;;;;;;5116196;28;20126;-40
2022/03/14 04:43:17;;;;;;;1.50;1.20;;;19.60;40.80;;;;;;5116565;28;20043;-41
2022/03/14 04:45:43;;;;;;;1.45;1.25;;;19.70;40.50;;;;;;5098964;28;20032;-44
2022/03/14 04:48:10;;;;;;;1.58;1.10;;;19.80;40.20;;;;;;5099566;28;20016;-39
2022/03/14 04:50:36;;;;;;;1.48;1.17;;;20.00;40.00;;;;;;5117572;28;20018;-40
2022/03/14 04:53:06;;;;;;;1.70;1.30;;;20.10;39.70;;;;;;5117867;28;20015;-46
2022/03/14 04:55:33;;;;;;;2.10;1.30;;;20.20;39.40;;;;;;5117610;28;20020;-40
2022/03/14 04:57:58;;;;;;;1.70;1.40;;;20.40;39.10;;;;;;5117369;28;20151;-41
2022/03/14 05:00:24;;;;;;;1.23;1.10;;;20.50;38.90;;;;;;5117479;28;20474;-39
2022/03/14 05:02:50;;;;;;;1.55;1.20;;;20.60;38.60;;;;;;5117817;28;20019;-38
2022/03/14 05:05:16;;;;;;;1.25;0.95;;;20.80;38.40;;;;;;5117755;28;20461;-40
2022/03/14 05:07:42;;;;;;;1.95;1.08;;;20.90;38.20;;;;;;5117855;28;20050;-38
2022/03/14 05:10:11;;;;;;;1.17;1.00;;;21.00;37.90;;;;;;5117458;28;20020;-41
2022/03/14 05:12:37;;;;;;;1.42;1.17;;;21.20;37.70;;;;;;5118292;28;20022;-39
2022/03/14 05:15:03;;;;;;;1.65;1.17;;;21.20;37.40;;;;;;5117505;28;20123;-39
2022/03/14 05:17:30;;;;;;;2.05;1.20;;;21.40;37.30;;;;;;5117410;28;20015;-39
2022/03/14 05:19:57;;;;;;;1.20;1.00;;;21.50;37.00;;;;;;5117123;28;20019;-43
2022/03/14 05:22:22;;;;;;;1.77;0.90;;;21.60;36.90;;;;;;5117099;28;20029;-38
2022/03/14 05:24:49;;;;;;;1.67;0.90;;;21.70;36.70;;;;;;5115987;28;20024;-37
2022/03/14 05:27:16;;;;;;;1.20;1.00;;;21.80;36.50;;;;;;5116164;28;20085;-37
2022/03/14 05:29:42;;;;;;;1.40;1.10;;;21.80;36.30;;;;;;5115136;28;20022;-38
2022/03/14 05:32:10;;;;;;;1.40;1.10;;;21.90;36.30;;;;;;5096941;28;20485;-38
2022/03/14 05:34:35;;;;;;;1.38;1.00;;;22.00;36.10;;;;;;5115060;28;20015;-38
2022/03/14 05:37:02;;;;;;;2.05;1.10;;;22.00;35.90;;;;;;5114973;28;20023;-38
2022/03/14 05:39:28;;;;;;;1.63;1.08;;;22.10;35.80;;;;;;5115142;28;20086;-40
2022/03/14 05:41:55;;;;;;;1.38;1.17;;;22.20;35.80;;;;;;5114506;28;20049;-39
2022/03/14 05:44:21;;;;;;;1.50;0.90;;;22.20;35.60;;;;;;5117388;28;20028;-39
2022/03/14 05:46:47;;;;;;;1.55;1.02;;;22.30;35.60;;;;;;5119043;28;20032;-42
2022/03/14 05:49:12;;;;;;;1.30;1.05;;;22.40;35.50;;;;;;5118735;28;20011;-39
2022/03/14 05:51:39;;;;;;;1.27;0.98;;;22.40;35.40;;;;;;5099726;28;20421;-40
2022/03/14 05:54:05;;;;;;;1.60;1.10;;;22.40;35.30;;;;;;5118838;28;20090;-39
2022/03/14 05:56:31;;;;;;;1.42;0.98;;;22.50;35.30;;;;;;5118300;28;20546;-41
2022/03/14 05:58:57;;;;;;;1.88;1.10;;;22.50;35.20;;;;;;5118702;28;20028;-39
2022/03/14 06:01:23;;;;;;;2.17;0.93;;;22.60;35.10;;;;;;5119005;28;20019;-43
2022/03/14 06:03:49;;;;;;;1.70;1.00;;;22.60;35.10;;;;;;5100364;28;20020;-41
2022/03/14 06:06:15;;;;;;;1.00;0.88;;;22.70;35.00;;;;;;5117321;28;20102;-38
2022/03/14 06:08:41;;;;;;;1.75;1.10;;;22.70;34.90;;;;;;5115298;28;20486;-39
2022/03/14 06:11:08;;;;;;;1.10;1.00;;;22.70;34.90;;;;;;5115402;28;20016;-39
2022/03/14 06:13:34;;;;;;;2.00;1.05;;;22.70;34.80;;;;;;5116633;28;20019;-41
2022/03/14 06:16:00;;;;;;;1.45;0.95;;;22.80;34.80;;;;;;5117677;28;20019;-39
2022/03/14 06:18:29;;;;;;;1.85;1.08;;;22.80;34.70;;;;;;5118067;28;20031;-42
2022/03/14 06:20:55;;;;;;;1.45;1.00;;;22.90;34.70;;;;;;5117978;28;20039;-38
2022/03/14 06:23:21;;;;;;;1.45;1.13;;;22.90;34.60;;;;;;5099931;28;20023;-38
2022/03/14 06:25:49;;;;;;;1.30;1.05;;;22.90;34.60;;;;;;5116933;28;20035;-40
2022/03/14 06:28:15;;;;;;;2.00;1.10;;;22.90;34.60;;;;;;5116514;28;20011;-38
2022/03/14 06:30:41;;;;;;;1.55;1.10;;;22.90;34.50;;;;;;5115043;28;20493;-38
2022/03/14 06:33:08;;;;;;;1.92;1.17;;;23.00;34.50;;;;;;5115111;28;20042;-44
2022/03/14 06:35:35;;;;;;;2.05;1.20;;;23.00;34.50;;;;;;5097893;28;20103;-38
2022/03/14 06:38:03;;;;;;;1.65;1.17;;;23.00;34.40;;;;;;5101335;28;20044;-39
2022/03/14 06:40:28;;;;;;;2.05;1.15;;;23.10;34.40;;;;;;5116067;28;20048;-38
2022/03/14 06:42:55;;;;;;;2.28;1.20;;;23.00;34.30;;;;;;5115864;28;20076;-39
2022/03/14 06:45:23;;;;;;;1.52;1.00;;;23.10;34.20;;;;;;5115550;28;20024;-38
2022/03/14 06:47:52;;;;;;;1.92;1.00;;;23.10;34.20;;;;;;5114316;28;20023;-42
2022/03/14 06:50:18;;;;;;;1.65;1.08;;;23.10;34.20;;;;;;5114944;28;20012;-41
2022/03/14 06:52:44;;;;;;;2.20;1.10;;;23.10;34.10;;;;;;5115691;28;20111;-36
2022/03/14 06:55:10;;;;;;;2.45;1.10;;;23.20;34.10;;;;;;5118876;28;20165;-40
2022/03/14 06:57:39;;;;;;;1.38;1.00;;;23.30;34.10;;;;;;5119948;28;20023;-37
2022/03/14 07:00:06;;;;;;;1.38;0.93;;;23.30;33.90;;;;;;5099303;28;20004;-36
2022/03/14 07:02:31;;;;;;;1.83;1.05;;;23.30;33.90;;;;;;5117557;28;20039;-35
2022/03/14 07:04:57;;;;;;;2.00;1.17;;;23.30;33.80;;;;;;5118214;28;20019;-35
2022/03/14 07:07:23;;;;;;;1.45;0.93;;;23.40;33.80;;;;;;5100241;28;20407;-37
2022/03/14 07:09:48;;;;;;;2.97;1.20;;;23.40;33.70;;;;;;5118465;28;20012;-35
2022/03/14 07:12:14;;;;;;;1.85;1.15;;;23.50;33.80;;;;;;5100185;28;20401;-38
2022/03/14 07:14:40;;;;;;;1.50;1.00;;;23.50;33.60;;;;;;5116530;28;20016;-38
2022/03/14 07:17:07;;;;;;;1.77;1.10;;;23.50;33.60;;;;;;5116617;28;20107;-38
2022/03/14 07:19:34;;;;;;;1.27;1.10;;;23.60;33.60;;;;;;5116269;28;20011;-37
2022/03/14 07:22:00;;;;;;;2.22;1.00;;;23.50;33.50;;;;;;5114499;28;20023;-38
2022/03/14 07:24:26;;;;;;;22.73;2.80;;;23.50;33.70;;;;;;5115178;28;20015;-37
2022/03/14 07:26:52;;;;;;;18.20;3.10;;;22.50;37.30;;;;;;5097717;28;20453;-37
2022/03/14 07:29:18;;;;;;;21.17;4.10;;;21.40;39.70;;;;;;5116361;28;20077;-36
2022/03/14 07:31:44;;;;;;;19.52;3.35;;;20.20;43.50;;;;;;5116358;28;20038;-36
2022/03/14 07:34:10;;;;;;;14.70;3.97;;;19.90;43.60;;;;;;5098065;28;20016;-35
2022/03/14 07:36:37;;;;;;;16.75;3.90;;;19.70;43.50;;;;;;5116236;28;20018;-35
2022/03/14 07:39:03;;;;;;;14.10;3.15;;;19.50;43.90;;;;;;5097973;28;20124;-37
2022/03/14 07:41:29;;;;;;;14.70;3.65;;;19.00;45.50;;;;;;5115835;28;20044;-38
2022/03/14 07:43:55;;;;;;;11.25;2.78;;;19.10;45.10;;;;;;5116004;28;20355;-38
2022/03/14 07:46:21;;;;;;;10.15;3.00;;;19.00;45.20;;;;;;5115692;28;20028;-37
2022/03/14 07:48:46;;;;;;;11.70;3.28;;;19.10;45.70;;;;;;5097974;28;20057;-37
2022/03/14 07:51:12;;;;;;;12.80;3.08;;;19.20;45.20;;;;;;5097510;28;20028;-38
2022/03/14 07:53:38;;;;;;;8.82;2.70;;;19.70;43.70;;;;;;5115738;28;20064;-36
2022/03/14 07:56:04;;;;;;;17.77;3.40;;;19.80;43.70;;;;;;5116014;28;20023;-39
2022/03/14 07:58:30;;;;;;;8.20;3.35;;;19.50;43.70;;;;;;5114696;28;20027;-36
2022/03/14 08:00:56;;;;;;;10.43;3.40;;;19.20;44.80;;;;;;5116093;28;20072;-37
2022/03/14 08:03:23;;;;;;;10.18;3.03;;;19.00;45.20;;;;;;5115661;28;20020;-36
2022/03/14 08:05:55;;;;;;;11.55;3.20;;;19.10;44.90;;;;;;5115125;28;20106;-35
2022/03/14 08:08:21;;;;;;;14.90;2.80;;;18.90;45.00;;;;;;5116245;28;20027;-36
2022/03/14 08:10:47;;;;;;;9.30;2.80;;;18.80;46.10;;;;;;5115246;28;20039;-35
2022/03/14 08:13:13;;;;;;;10.48;2.70;;;19.30;45.00;;;;;;5095989;28;20171;-37
2022/03/14 08:15:39;;;;;;;9.68;2.70;;;19.50;44.20;;;;;;5113925;28;20461;-35
2022/03/14 08:18:07;;;;;;;16.70;3.33;;;19.50;43.70;;;;;;5113901;28;20458;-36
2022/03/14 08:20:33;;;;;;;22.55;3.92;;;19.50;44.60;;;;;;5096289;28;20019;-36
2022/03/14 08:23:02;;;;;;;22.25;3.83;;;19.40;45.50;;;;;;5096482;28;20012;-36
2022/03/14 08:25:29;;;;;;;26.17;3.70;;;19.60;45.10;;;;;;5096731;28;20019;-35
2022/03/14 08:27:55;;;;;;;20.63;3.40;;;19.70;44.90;;;;;;5114512;28;20037;-36
2022/03/14 08:30:23;;;;;;;16.42;3.30;;;19.60;45.30;;;;;;5114525;28;20011;-35
2022/03/14 08:32:50;;;;;;;13.43;3.00;;;19.60;45.00;;;;;;5114648;28;20011;-35
2022/03/14 08:35:19;;;;;;;17.67;3.38;;;19.50;44.70;;;;;;5114730;28;20353;-35
2022/03/14 08:37:45;;;;;;;7.97;2.67;;;19.50;44.80;;;;;;5114769;28;20008;-36
2022/03/14 08:40:13;;;;;;;18.27;2.50;;;19.80;43.80;;;;;;5114194;28;20051;-35
2022/03/14 08:42:40;;;;;;;10.38;2.88;;;19.90;44.30;;;;;;5096604;28;20031;-35
2022/03/14 08:45:06;;;;;;;11.60;2.50;;;20.10;42.90;;;;;;5096341;28;20091;-35
2022/03/14 08:47:32;;;;;;;11.13;2.83;;;20.10;42.50;;;;;;5114040;28;20378;-35
2022/03/14 08:49:58;;;;;;;11.43;2.92;;;20.40;42.60;;;;;;5114241;28;20076;-36
2022/03/14 08:52:24;;;;;;;10.57;2.63;;;20.40;42.40;;;;;;5113780;28;20012;-36
2022/03/14 08:54:49;;;;;;;12.35;2.33;;;20.70;42.40;;;;;;5095676;28;20016;-36
2022/03/14 08:57:16;;;;;;;11.05;2.22;;;20.80;41.60;;;;;;5113983;28;20370;-36
2022/03/14 08:59:43;;;;;;;10.93;3.10;;;20.80;41.50;;;;;;5113777;28;20019;-35
2022/03/14 09:02:09;;;;;;;15.02;2.88;;;20.60;41.70;;;;;;5112831;28;20004;-37
2022/03/14 09:04:36;;;;;;;16.67;3.10;;;20.20;42.40;;;;;;5113240;28;20019;-39
2022/03/14 09:07:02;;;;;;;15.18;3.17;;;19.70;43.60;;;;;;5096316;28;20019;-37
2022/03/14 09:09:28;;;;;;;14.80;2.88;;;19.40;44.70;;;;;;5114332;28;20138;-38
2022/03/14 09:11:53;;;;;;;16.90;2.55;;;19.60;44.80;;;;;;5097276;28;20047;-36
2022/03/14 09:14:19;;;;;;;11.80;2.78;;;20.10;43.40;;;;;;5114871;28;20119;-40
2022/03/14 09:16:46;;;;;;;16.20;3.17;;;20.60;42.00;;;;;;5112033;28;20008;-38
2022/03/14 09:19:13;;;;;;;30.73;4.43;;;20.90;41.10;;;;;;5111958;28;20516;-35
2022/03/14 09:21:41;;;;;;;39.33;3.78;;;20.60;42.80;;;;;;5114359;28;20016;-36
2022/03/14 09:24:07;;;;;;;30.48;4.43;;;20.30;43.80;;;;;;5096306;28;20460;-36
2022/03/14 09:26:37;;;;;;;22.55;4.13;;;19.90;44.50;;;;;;5096186;28;20034;-36
2022/03/14 09:29:04;;;;;;;24.65;3.67;;;19.50;45.90;;;;;;5114493;28;20020;-35
2022/03/14 09:31:29;;;;;;;20.17;3.45;;;19.60;45.30;;;;;;5095543;28;20027;-37
2022/03/14 09:33:56;;;;;;;16.65;3.22;;;19.80;45.30;;;;;;5095788;28;20016;-38
2022/03/14 09:36:22;;;;;;;16.63;3.00;;;19.90;44.20;;;;;;5096535;28;20554;-37
2022/03/14 09:38:47;;;;;;;12.77;2.90;;;19.50;45.90;;;;;;5096162;28;20051;-37
2022/03/14 09:41:14;;;;;;;11.75;2.83;;;19.80;44.80;;;;;;5096165;28;20047;-36
2022/03/14 09:43:40;;;;;;;15.45;3.05;;;19.60;45.60;;;;;;5096516;28;20038;-37
2022/03/14 09:46:07;;;;;;;22.17;3.28;;;19.60;46.20;;;;;;5095798;28;20462;-38
2022/03/14 09:48:36;;;;;;;17.15;2.70;;;19.70;46.00;;;;;;5114513;28;20027;-42
2022/03/14 09:51:02;;;;;;;17.73;3.20;;;20.20;44.80;;;;;;5113328;28;20012;-40
2022/03/14 09:53:28;;;;;;;17.85;3.55;;;20.50;44.30;;;;;;5113925;28;20490;-39
2022/03/14 09:55:55;;;;;;;34.35;18.52;;;21.00;43.30;;;;;;5095623;28;20486;-38
2022/03/14 09:58:21;;;;;;;44.85;24.77;;;21.60;43.40;;;;;;5095490;28;20019;-38
2022/03/14 10:00:49;;;;;;;23.48;14.02;;;21.90;42.60;;;;;;5095850;28;20026;-39
2022/03/14 10:03:16;;;;;;;17.35;7.18;;;21.90;41.90;;;;;;5095257;28;20026;-39
2022/03/14 10:05:42;;;;;;;16.92;4.35;;;22.00;41.40;;;;;;5113647;28;20028;-39
2022/03/14 10:08:08;;;;;;;18.65;3.35;;;22.10;41.30;;;;;;5094051;28;20075;-38
2022/03/14 10:10:37;;;;;;;14.90;3.00;;;22.00;41.10;;;;;;5093503;28;20024;-39
2022/03/14 10:13:05;;;;;;;18.95;3.58;;;22.10;40.80;;;;;;5094994;28;20092;-40
2022/03/14 10:15:37;;;;;;;25.58;3.75;;;22.00;41.00;;;;;;5095590;28;20014;-39
2022/03/14 10:18:10;;;;;;;23.90;3.58;;;22.10;41.40;;;;;;5113466;28;20051;-38
2022/03/14 10:20:36;;;;;;;24.55;3.65;;;22.10;41.40;;;;;;5113470;28;20035;-40
2022/03/14 10:23:02;;;;;;;22.35;3.17;;;22.10;41.40;;;;;;5112980;28;20074;-39
2022/03/14 10:25:28;;;;;;;25.08;3.58;;;22.20;41.30;;;;;;5094694;28;20019;-39
2022/03/14 10:27:56;;;;;;;20.20;2.75;;;22.10;41.20;;;;;;5094497;28;20019;-38
2022/03/14 10:30:29;;;;;;;23.85;3.33;;;22.10;41.10;;;;;;5095187;28;20016;-36
2022/03/14 10:33:08;;;;;;;14.88;2.22;;;22.00;41.30;;;;;;5113764;28;20079;-39
2022/03/14 10:35:37;;;;;;;15.80;3.15;;;22.10;41.20;;;;;;5113760;28;20019;-37
2022/03/14 10:38:05;;;;;;;16.00;2.85;;;22.20;41.20;;;;;;5113055;28;20022;-37
2022/03/14 10:40:51;;;;;;;21.58;3.35;;;22.10;41.30;;;;;;5095066;28;20052;-38
2022/03/14 10:43:26;;;;;;;15.70;2.53;;;22.20;41.20;;;;;;5112908;28;20118;-42
2022/03/14 10:45:53;;;;;;;10.95;2.40;;;22.30;41.10;;;;;;5113195;28;20046;-39
2022/03/14 10:48:45;;;;;;;16.92;2.65;;;22.40;40.90;;;;;;5094768;28;20015;-42
2022/03/14 10:51:13;;;;;;;15.10;2.72;;;22.50;40.70;;;;;;5094453;28;20054;-39
2022/03/14 10:53:45;;;;;;;17.27;3.03;;;22.50;40.60;;;;;;5112507;28;20038;-45
2022/03/14 10:56:11;;;;;;;13.40;2.50;;;22.50;40.40;;;;;;5095159;28;20020;-42
2022/03/14 10:58:39;;;;;;;14.60;2.67;;;22.50;40.10;;;;;;5112889;28;20493;-42
2022/03/14 11:01:08;;;;;;;16.05;2.90;;;22.50;40.00;;;;;;5113674;28;20046;-40
2022/03/14 11:03:35;;;;;;;16.87;2.83;;;22.40;39.80;;;;;;5113946;28;20088;-39
2022/03/14 11:06:04;;;;;;;13.25;2.85;;;22.40;39.70;;;;;;5114267;28;20016;-39
2022/03/14 11:08:30;;;;;;;18.17;2.73;;;22.40;39.50;;;;;;5114492;28;20012;-39
2022/03/14 11:10:57;;;;;;;14.80;2.65;;;22.50;39.30;;;;;;5114274;28;20019;-39
2022/03/14 11:13:26;;;;;;;15.07;2.33;;;22.80;39.10;;;;;;5114369;28;20102;-37
2022/03/14 11:15:51;;;;;;;18.40;2.60;;;22.90;38.80;;;;;;5113727;28;20026;-37
2022/03/14 11:18:18;;;;;;;15.48;3.22;;;23.20;38.40;;;;;;5096029;28;20004;-36
2022/03/14 11:20:43;;;;;;;14.43;2.40;;;23.30;38.10;;;;;;5113861;28;20103;-38
2022/03/14 11:23:10;;;;;;;10.52;2.30;;;23.40;37.90;;;;;;5095307;28;20051;-37
2022/03/14 11:25:37;;;;;;;14.68;2.13;;;23.50;37.70;;;;;;5114309;28;20066;-39
2022/03/14 11:28:03;;;;;;;13.00;2.58;;;23.60;37.50;;;;;;5113211;28;20008;-37
2022/03/14 11:30:29;;;;;;;14.07;2.67;;;23.60;37.30;;;;;;5112286;28;20484;-37
2022/03/14 11:32:57;;;;;;;12.63;2.95;;;23.40;37.50;;;;;;5113360;28;20489;-39
2022/03/14 11:35:23;;;;;;;11.32;2.35;;;23.00;37.70;;;;;;5095452;28;20023;-37
2022/03/14 11:37:49;;;;;;;10.38;2.55;;;23.00;37.60;;;;;;5113471;28;20020;-37
2022/03/14 11:40:16;;;;;;;10.75;2.28;;;23.10;37.30;;;;;;5116104;28;20092;-39
2022/03/14 11:42:41;;;;;;;10.02;2.00;;;23.30;37.50;;;;;;5117146;28;20027;-41
2022/03/14 11:45:07;;;;;;;11.38;2.17;;;23.50;36.80;;;;;;5115412;28;20024;-40
2022/03/14 11:47:33;;;;;;;10.82;1.88;;;23.50;36.50;;;;;;5115348;28;20011;-40
2022/03/14 11:49:59;;;;;;;26.17;3.42;;;23.60;36.60;;;;;;5115109;28;20357;-40
2022/03/14 11:52:35;;;;;;;29.70;3.35;;;23.50;37.80;;;;;;5097079;28;20018;-40
2022/03/14 11:55:02;;;;;;;23.45;2.88;;;23.60;39.00;;;;;;5116022;28;20012;-41
2022/03/14 11:57:39;;;;;;;30.15;3.50;;;23.60;39.60;;;;;;5116301;28;20095;-39
2022/03/14 12:00:25;;;;;;;30.63;3.33;;;23.70;40.20;;;;;;5115488;28;20008;-40
2022/03/14 12:02:52;;;;;;;24.63;2.70;;;23.80;40.50;;;;;;5115204;28;20027;-36
2022/03/14 12:05:22;;;;;;;32.72;3.97;;;23.90;40.80;;;;;;5096393;28;20104;-36
2022/03/14 12:07:48;;;;;;;28.38;3.28;;;24.00;41.10;;;;;;5114646;28;20099;-38
2022/03/14 12:10:35;;;;;;;18.50;3.00;;;24.10;41.20;;;;;;5095681;28;20382;-36
2022/03/14 12:13:02;;;;;;;23.25;3.33;;;24.10;41.70;;;;;;5097097;28;20019;-37
2022/03/14 12:15:43;;;;;;;28.20;3.60;;;24.20;41.40;;;;;;5096691;28;20123;-37
2022/03/14 12:18:25;;;;;;;24.17;3.25;;;24.10;41.40;;;;;;5079918;28;20489;-36
2022/03/14 12:21:03;;;;;;;26.75;3.40;;;24.20;41.60;;;;;;5114240;28;20073;-38
2022/03/14 12:23:32;;;;;;;19.77;2.92;;;24.30;41.80;;;;;;5096144;28;20121;-37
2022/03/14 12:25:59;;;;;;;25.90;3.67;;;24.40;41.80;;;;;;5096135;28;20095;-36
2022/03/14 12:28:36;;;;;;;24.52;3.03;;;24.50;42.00;;;;;;5096394;28;20332;-36
2022/03/14 12:31:04;;;;;;;26.55;3.58;;;24.70;42.20;;;;;;5114526;28;20019;-36
2022/03/14 12:33:41;;;;;;;16.48;2.72;;;24.60;42.10;;;;;;5114177;28;20022;-37
2022/03/14 12:36:22;;;;;;;28.83;3.08;;;24.30;39.70;;;;;;5095933;28;20015;-38
2022/03/14 12:39:06;;;;;;;23.92;2.88;;;24.10;39.40;;;;;;5114258;28;20019;-39
2022/03/14 12:41:33;;;;;;;32.80;3.30;;;23.80;39.20;;;;;;5094549;28;20043;-39
2022/03/14 12:43:58;;;;;;;31.00;3.33;;;23.40;40.30;;;;;;5115319;28;20069;-38